Time;durP1;ratioP1;P1;durP2;ratioP2;P2;SDS_P1;SDS_P2;PMS_P1;PMS_P2;Temp;Humidity;BMP_temperature;BMP_pressure;BME280_temperature;BME280_humidity;BME280_pressure;Samples;Min_cycle;Max_cycle;Signal;HPM_P1;HPM_P2
2022/06/16 00:00:36;;;;;;;8.10;4.77;;;17.30;59.40;;;;;;4986999;28;20204;-60
2022/06/16 00:03:03;;;;;;;9.00;4.87;;;17.20;59.50;;;;;;4975596;28;20455;-60
2022/06/16 00:05:34;;;;;;;6.67;4.80;;;17.20;59.80;;;;;;4991852;28;20523;-61
2022/06/16 00:08:03;;;;;;;6.90;4.73;;;17.20;60.20;;;;;;4974541;28;20762;-60
2022/06/16 00:10:29;;;;;;;7.70;5.90;;;17.10;60.30;;;;;;4995069;28;20443;-60
2022/06/16 00:12:55;;;;;;;6.27;4.90;;;17.10;60.40;;;;;;4982519;28;20554;-60
2022/06/16 00:15:24;;;;;;;6.03;4.43;;;17.00;60.70;;;;;;4982468;28;20320;-60
2022/06/16 00:17:50;;;;;;;8.97;5.07;;;16.90;60.90;;;;;;4980550;28;20197;-59
2022/06/16 00:20:16;;;;;;;6.80;5.10;;;16.90;61.90;;;;;;4984353;28;20818;-60
2022/06/16 00:22:42;;;;;;;6.83;4.90;;;16.90;62.50;;;;;;4996229;28;20529;-61
2022/06/16 00:25:08;;;;;;;7.50;5.10;;;16.80;63.10;;;;;;4991467;28;20511;-60
2022/06/16 00:27:34;;;;;;;5.77;4.90;;;16.80;63.90;;;;;;4996146;28;20180;-59
2022/06/16 00:29:59;;;;;;;8.70;5.23;;;16.70;64.50;;;;;;4997089;28;20455;-60
2022/06/16 00:32:26;;;;;;;7.10;4.90;;;16.70;65.50;;;;;;4992786;28;20197;-60
2022/06/16 00:34:52;;;;;;;7.30;5.20;;;16.60;66.40;;;;;;4983860;28;20685;-60
2022/06/16 00:37:17;;;;;;;10.30;4.70;;;16.60;67.30;;;;;;4990956;28;20471;-60
2022/06/16 00:39:43;;;;;;;8.43;4.80;;;16.60;68.20;;;;;;4982170;28;20460;-60
2022/06/16 00:42:17;;;;;;;7.40;5.30;;;16.50;68.70;;;;;;4989170;28;20247;-62
2022/06/16 00:44:46;;;;;;;10.00;5.30;;;16.50;69.30;;;;;;4997975;28;20252;-60
2022/06/16 00:47:12;;;;;;;6.10;5.00;;;16.50;69.10;;;;;;4978339;28;20778;-59
2022/06/16 00:49:41;;;;;;;6.37;5.77;;;16.50;69.90;;;;;;4993666;28;20485;-60
2022/06/16 00:52:16;;;;;;;7.10;5.33;;;16.50;70.10;;;;;;4987552;28;20442;-60
2022/06/16 00:55:04;;;;;;;8.53;5.70;;;16.50;70.60;;;;;;4984740;28;21072;-60
2022/06/16 00:57:38;;;;;;;13.47;6.27;;;16.40;70.60;;;;;;4985958;28;20457;-59
2022/06/16 01:00:11;;;;;;;6.83;5.43;;;16.40;71.40;;;;;;4978942;28;20492;-59
2022/06/16 01:02:37;;;;;;;10.83;5.40;;;16.30;72.70;;;;;;4987595;28;20428;-59
2022/06/16 01:05:03;;;;;;;9.77;5.50;;;16.30;73.80;;;;;;4987673;28;20482;-60
2022/06/16 01:07:41;;;;;;;8.43;5.53;;;16.30;74.80;;;;;;4991161;28;20219;-59
2022/06/16 01:10:09;;;;;;;10.30;5.73;;;16.20;76.10;;;;;;4982750;28;20205;-59
2022/06/16 01:15:54;;;;;;;10.73;5.30;;;16.10;77.30;;;;;;4982629;28;20422;-59
2022/06/16 01:18:44;;;;;;;7.17;5.33;;;16.00;80.00;;;;;;4979193;28;20447;-59
2022/06/16 01:21:18;;;;;;;6.83;5.67;;;16.00;81.60;;;;;;4987556;28;20430;-59
2022/06/16 01:23:50;;;;;;;7.23;5.40;;;15.90;82.10;;;;;;4983354;28;20423;-61
2022/06/16 01:26:18;;;;;;;6.50;5.67;;;15.90;83.00;;;;;;4992340;28;20494;-59
2022/06/16 01:29:21;;;;;;;7.87;5.20;;;15.90;83.70;;;;;;4982987;28;20466;-61
2022/06/16 01:32:03;;;;;;;9.60;5.87;;;15.90;83.90;;;;;;4988242;28;20786;-59
2022/06/16 01:34:54;;;;;;;10.43;5.73;;;15.80;83.80;;;;;;4970687;28;20433;-60
2022/06/16 01:37:28;;;;;;;9.33;5.37;;;15.80;84.00;;;;;;5003716;28;20460;-59
2022/06/16 01:40:00;;;;;;;6.97;5.40;;;15.80;85.10;;;;;;4985110;28;20435;-59
2022/06/16 01:42:35;;;;;;;10.90;5.90;;;15.80;85.50;;;;;;4998407;28;20745;-59
2022/06/16 01:45:22;;;;;;;7.87;6.17;;;15.70;86.10;;;;;;5000549;28;20423;-60
2022/06/16 01:47:50;;;;;;;6.80;5.87;;;15.70;86.10;;;;;;4983892;28;20912;-61
2022/06/16 01:50:44;;;;;;;11.53;5.97;;;15.70;86.00;;;;;;4987281;28;20452;-60
2022/06/16 01:53:15;;;;;;;8.20;5.90;;;15.70;86.70;;;;;;4987560;28;20440;-60
2022/06/16 01:56:04;;;;;;;9.17;5.70;;;15.70;87.70;;;;;;5001414;28;20932;-59
2022/06/16 01:58:34;;;;;;;7.67;5.10;;;15.70;88.40;;;;;;4985592;28;20436;-61
2022/06/16 02:01:05;;;;;;;9.70;6.00;;;15.70;87.40;;;;;;4977098;28;20437;-60
2022/06/16 02:03:37;;;;;;;9.93;5.87;;;15.70;86.40;;;;;;4983307;28;20940;-60
2022/06/16 02:06:16;;;;;;;8.73;6.20;;;15.70;86.90;;;;;;4989437;28;20489;-60
2022/06/16 02:08:48;;;;;;;6.47;5.70;;;15.70;87.10;;;;;;4992879;28;20456;-59
2022/06/16 02:11:33;;;;;;;11.00;6.27;;;15.70;86.80;;;;;;4988162;28;20433;-59
2022/06/16 02:14:21;;;;;;;10.57;6.30;;;15.70;87.20;;;;;;4984604;28;20498;-60
2022/06/16 02:16:48;;;;;;;8.67;6.40;;;15.70;88.30;;;;;;4992951;28;20479;-60
2022/06/16 02:19:18;;;;;;;12.80;5.77;;;15.60;90.10;;;;;;5002277;28;20466;-59
2022/06/16 02:21:49;;;;;;;8.53;5.60;;;15.60;90.30;;;;;;4988020;28;20433;-60
2022/06/16 02:24:18;;;;;;;6.53;5.30;;;15.50;90.80;;;;;;4992735;28;20554;-60
2022/06/16 02:26:45;;;;;;;9.17;5.80;;;15.50;91.20;;;;;;4989083;28;20941;-60
2022/06/16 02:29:30;;;;;;;9.97;6.20;;;15.40;91.70;;;;;;4992175;28;20455;-60
2022/06/16 02:32:35;;;;;;;7.20;6.20;;;15.40;91.60;;;;;;4991857;28;20858;-61
2022/06/16 02:35:19;;;;;;;7.47;6.03;;;15.30;91.50;;;;;;4979561;28;20440;-60
2022/06/16 02:37:48;;;;;;;8.60;5.60;;;15.30;91.60;;;;;;4987397;28;20469;-60
2022/06/16 02:40:33;;;;;;;11.50;6.30;;;15.30;92.30;;;;;;4981080;28;20506;-60
2022/06/16 02:43:17;;;;;;;8.03;6.10;;;15.20;92.40;;;;;;4988083;28;20468;-59
2022/06/16 02:46:00;;;;;;;8.53;6.00;;;15.20;92.50;;;;;;4989161;28;20451;-60
2022/06/16 02:48:44;;;;;;;7.37;5.33;;;15.20;92.80;;;;;;4982657;28;20420;-60
2022/06/16 02:51:26;;;;;;;8.30;5.90;;;15.20;93.10;;;;;;4994654;28;20871;-60
2022/06/16 02:54:22;;;;;;;7.77;5.70;;;15.20;93.90;;;;;;4975240;28;20941;-61
2022/06/16 02:56:57;;;;;;;8.17;5.90;;;15.30;93.20;;;;;;4985435;28;20451;-60
2022/06/16 02:59:38;;;;;;;10.83;6.13;;;15.40;93.40;;;;;;4978936;28;20448;-61
2022/06/16 03:02:16;;;;;;;7.97;5.30;;;15.40;93.40;;;;;;4991711;28;20465;-60
2022/06/16 03:04:46;;;;;;;8.50;5.90;;;15.50;92.80;;;;;;4989566;28;20422;-61
2022/06/16 03:07:13;;;;;;;8.83;6.50;;;15.50;92.50;;;;;;4986424;28;20432;-61
2022/06/16 03:09:38;;;;;;;11.73;6.50;;;15.50;92.40;;;;;;4986125;28;20792;-60
2022/06/16 03:12:06;;;;;;;9.97;5.73;;;15.60;94.10;;;;;;4999841;28;20459;-60
2022/06/16 03:14:32;;;;;;;13.70;7.43;;;15.60;96.10;;;;;;4991646;28;20584;-60
2022/06/16 03:16:58;;;;;;;15.00;7.80;;;15.70;99.90;;;;;;4980220;28;20488;-59
2022/06/16 03:19:23;;;;;;;9.27;6.53;;;15.70;99.90;;;;;;4987030;28;20209;-61
2022/06/16 03:21:49;;;;;;;11.57;6.67;;;15.60;99.90;;;;;;4994475;28;20187;-59
2022/06/16 03:24:16;;;;;;;15.83;7.20;;;15.60;99.90;;;;;;4991770;28;20832;-60
2022/06/16 03:26:41;;;;;;;11.23;7.00;;;15.60;99.90;;;;;;4969151;28;20450;-61
2022/06/16 03:29:07;;;;;;;12.67;6.97;;;15.50;99.90;;;;;;4971888;28;22209;-60
2022/06/16 03:31:33;;;;;;;11.70;7.30;;;15.50;99.90;;;;;;4991555;28;20181;-59
2022/06/16 03:33:59;;;;;;;15.10;6.50;;;15.40;99.90;;;;;;4984046;28;20459;-60
2022/06/16 03:36:24;;;;;;;9.23;7.13;;;15.40;99.90;;;;;;4994525;28;20208;-59
2022/06/16 03:38:50;;;;;;;9.10;7.27;;;15.40;99.90;;;;;;4981920;28;20233;-60
2022/06/16 03:41:16;;;;;;;12.97;7.70;;;15.40;99.90;;;;;;4987565;28;20180;-60
2022/06/16 03:43:42;;;;;;;9.00;7.43;;;15.40;99.90;;;;;;4979762;28;20182;-60
2022/06/16 03:46:07;;;;;;;9.83;6.77;;;15.40;99.90;;;;;;4982781;28;20188;-60
2022/06/16 03:48:34;;;;;;;10.40;7.00;;;15.30;99.90;;;;;;4983612;28;20713;-60
2022/06/16 03:51:00;;;;;;;7.07;6.37;;;15.20;99.90;;;;;;4981618;28;20189;-59
2022/06/16 03:53:25;;;;;;;9.00;7.30;;;15.10;99.90;;;;;;4988524;28;20443;-60
2022/06/16 03:55:51;;;;;;;13.00;7.60;;;15.00;99.90;;;;;;4982679;28;20293;-59
2022/06/16 03:58:17;;;;;;;12.80;6.53;;;15.00;99.90;;;;;;4964864;28;20185;-60
2022/06/16 04:00:43;;;;;;;8.57;7.20;;;15.00;99.90;;;;;;4991747;28;20221;-60
2022/06/16 04:05:54;;;;;;;12.10;6.90;;;14.90;99.90;;;;;;4982152;28;20192;-59
2022/06/16 04:08:20;;;;;;;8.03;6.97;;;14.90;99.90;;;;;;4989601;28;20460;-61
2022/06/16 04:10:47;;;;;;;16.10;7.37;;;14.90;99.90;;;;;;4986591;28;20859;-60
2022/06/16 04:13:14;;;;;;;9.70;7.30;;;14.80;99.90;;;;;;4993605;28;20837;-59
2022/06/16 04:15:40;;;;;;;9.90;7.30;;;14.80;99.90;;;;;;4993087;28;20431;-61
2022/06/16 04:18:07;;;;;;;9.87;6.90;;;14.90;99.90;;;;;;4998682;28;20494;-60
2022/06/16 04:20:33;;;;;;;9.03;7.10;;;14.90;99.90;;;;;;4974086;28;20555;-59
2022/06/16 04:22:59;;;;;;;10.20;6.50;;;15.00;99.90;;;;;;4987277;28;20486;-59
2022/06/16 04:25:30;;;;;;;10.10;7.70;;;15.00;99.90;;;;;;4996365;28;20432;-60
2022/06/16 04:28:01;;;;;;;12.10;7.97;;;15.00;99.90;;;;;;4992519;28;20279;-58
2022/06/16 04:30:28;;;;;;;8.40;6.90;;;15.00;99.90;;;;;;4995512;28;20456;-58
2022/06/16 04:32:53;;;;;;;10.00;7.73;;;15.10;99.90;;;;;;4996355;28;20436;-58
2022/06/16 04:35:19;;;;;;;10.20;7.37;;;15.10;99.90;;;;;;4996824;28;20455;-59
2022/06/16 04:37:45;;;;;;;9.90;7.83;;;15.10;99.90;;;;;;5002259;28;20222;-59
2022/06/16 04:40:11;;;;;;;9.10;7.20;;;15.10;99.90;;;;;;4995459;28;20201;-61
2022/06/16 04:42:37;;;;;;;9.00;7.50;;;15.10;99.90;;;;;;4994651;28;20680;-60
2022/06/16 04:45:04;;;;;;;12.40;8.17;;;15.10;99.90;;;;;;4981409;28;20857;-59
2022/06/16 04:47:30;;;;;;;9.20;7.23;;;15.20;99.90;;;;;;4998464;28;20508;-59
2022/06/16 04:49:55;;;;;;;9.80;7.63;;;15.30;99.90;;;;;;5002546;28;20914;-59
2022/06/16 04:52:22;;;;;;;9.97;6.93;;;15.40;99.90;;;;;;4998307;28;20195;-59
2022/06/16 04:54:49;;;;;;;10.63;7.43;;;15.50;99.90;;;;;;4994454;28;20219;-59
2022/06/16 04:57:15;;;;;;;8.47;7.10;;;15.60;99.90;;;;;;5011766;28;20515;-59
2022/06/16 04:59:42;;;;;;;15.40;7.73;;;15.70;99.90;;;;;;4978240;28;20435;-58
2022/06/16 05:02:08;;;;;;;12.43;7.73;;;15.70;99.90;;;;;;4983525;28;20184;-60
2022/06/16 05:04:35;;;;;;;11.53;8.17;;;15.80;99.90;;;;;;4997384;28;20829;-59
2022/06/16 05:07:01;;;;;;;8.73;7.27;;;15.90;99.90;;;;;;4997482;28;20523;-59
2022/06/16 05:09:28;;;;;;;10.63;7.60;;;15.90;99.90;;;;;;4995971;28;20519;-60
2022/06/16 05:11:54;;;;;;;10.00;7.50;;;16.00;99.90;;;;;;4996024;28;20442;-59
2022/06/16 05:14:20;;;;;;;9.70;8.23;;;16.00;99.90;;;;;;4966960;28;20416;-59
2022/06/16 05:16:47;;;;;;;8.83;7.70;;;16.00;99.90;;;;;;4999417;28;20278;-59
2022/06/16 05:19:13;;;;;;;8.80;7.90;;;16.10;99.90;;;;;;4992878;28;20514;-59
2022/06/16 05:21:39;;;;;;;11.40;8.10;;;16.10;99.90;;;;;;4999907;28;20924;-59
2022/06/16 05:24:05;;;;;;;9.97;8.50;;;16.10;99.90;;;;;;4994670;28;20204;-60
2022/06/16 05:26:30;;;;;;;11.30;8.47;;;16.10;99.90;;;;;;4995688;28;20535;-59
2022/06/16 05:28:56;;;;;;;12.17;7.57;;;16.10;99.90;;;;;;4996785;28;20288;-59
2022/06/16 05:31:23;;;;;;;22.00;8.30;;;16.10;99.90;;;;;;4995526;28;20544;-59
2022/06/16 05:33:49;;;;;;;15.80;8.50;;;16.10;99.90;;;;;;4991151;28;20845;-59
2022/06/16 05:36:16;;;;;;;9.87;8.53;;;16.10;99.90;;;;;;5002481;28;20462;-60
2022/06/16 05:38:42;;;;;;;10.23;8.07;;;16.20;99.90;;;;;;4993896;28;20503;-59
2022/06/16 05:41:14;;;;;;;11.70;7.80;;;16.30;99.90;;;;;;4996077;28;20984;-59
2022/06/16 05:43:40;;;;;;;11.00;7.40;;;16.30;99.90;;;;;;4998299;28;20176;-59
2022/06/16 05:46:12;;;;;;;11.73;8.00;;;16.30;99.90;;;;;;4997716;28;20479;-59
2022/06/16 05:48:38;;;;;;;12.87;7.70;;;16.40;99.90;;;;;;4994230;28;20524;-58
2022/06/16 05:51:06;;;;;;;9.13;7.67;;;16.50;99.90;;;;;;4995740;28;20518;-60
2022/06/16 05:53:32;;;;;;;10.63;8.57;;;16.60;99.90;;;;;;4996721;28;20239;-59
2022/06/16 05:55:58;;;;;;;12.00;8.60;;;16.70;99.90;;;;;;4992452;28;20921;-59
2022/06/16 05:58:23;;;;;;;12.87;8.33;;;16.80;99.90;;;;;;4996826;28;20220;-59
2022/06/16 06:00:49;;;;;;;9.53;7.40;;;16.90;99.90;;;;;;4996040;28;20655;-59
2022/06/16 06:03:15;;;;;;;10.67;7.80;;;17.00;99.90;;;;;;4997323;28;20693;-59
2022/06/16 06:05:40;;;;;;;12.07;7.90;;;17.10;99.90;;;;;;4986997;28;20808;-59
2022/06/16 06:19:26;;;;;;;11.77;7.60;;;17.70;99.90;;;;;;4987888;28;20564;-61
2022/06/16 06:22:00;;;;;;;10.63;7.87;;;17.80;99.90;;;;;;4980015;28;20428;-59
2022/06/16 06:24:27;;;;;;;10.80;7.70;;;18.00;99.90;;;;;;4983461;28;20456;-59
2022/06/16 06:26:53;;;;;;;9.43;6.90;;;18.10;99.90;;;;;;5007041;28;20440;-59
2022/06/16 06:29:19;;;;;;;10.30;7.13;;;18.30;99.90;;;;;;4996546;28;20990;-60
2022/06/16 06:31:45;;;;;;;13.60;7.87;;;18.40;99.90;;;;;;4986220;28;20428;-60
2022/06/16 06:34:11;;;;;;;10.67;7.50;;;18.60;99.90;;;;;;4985761;28;20178;-59
2022/06/16 06:36:37;;;;;;;11.13;8.87;;;18.70;99.90;;;;;;4979587;28;20956;-60
2022/06/16 06:39:03;;;;;;;10.53;8.43;;;18.80;99.90;;;;;;4986966;28;20227;-59
2022/06/16 06:41:29;;;;;;;13.43;8.07;;;19.00;99.90;;;;;;4979842;28;20185;-60
2022/06/16 06:43:54;;;;;;;9.20;7.40;;;19.10;99.90;;;;;;4992050;28;21026;-61
2022/06/16 06:46:20;;;;;;;9.50;8.17;;;19.20;99.90;;;;;;4996124;28;20180;-60
2022/06/16 06:48:45;;;;;;;11.83;7.83;;;19.30;99.90;;;;;;5000334;28;20200;-59
2022/06/16 06:51:11;;;;;;;18.13;8.63;;;19.50;99.90;;;;;;4988873;28;20188;-60
2022/06/16 06:53:37;;;;;;;10.87;7.10;;;19.60;99.90;;;;;;4989903;28;20197;-59
2022/06/16 06:56:03;;;;;;;10.23;7.87;;;19.70;99.90;;;;;;4985753;28;20185;-59
2022/06/16 06:58:32;;;;;;;9.00;7.50;;;20.00;99.90;;;;;;4984439;28;20182;-60
2022/06/16 07:01:01;;;;;;;14.77;8.30;;;20.10;99.90;;;;;;4973107;28;20439;-59
2022/06/16 07:03:29;;;;;;;10.67;7.87;;;20.30;99.90;;;;;;4993536;28;20436;-60
2022/06/16 07:05:55;;;;;;;14.80;7.70;;;20.50;99.90;;;;;;4981429;28;20535;-60
2022/06/16 07:08:21;;;;;;;10.63;7.83;;;20.70;99.60;;;;;;4981365;28;20440;-59
2022/06/16 07:10:47;;;;;;;8.73;7.07;;;20.90;98.70;;;;;;4985454;28;20800;-59
2022/06/16 07:13:13;;;;;;;14.80;7.33;;;21.10;98.60;;;;;;4997022;28;20180;-59
2022/06/16 07:15:38;;;;;;;11.30;6.97;;;21.10;98.10;;;;;;4988821;28;20541;-60
2022/06/16 07:18:06;;;;;;;8.60;6.30;;;21.20;98.20;;;;;;4986903;28;20479;-59
2022/06/16 07:20:32;;;;;;;11.43;7.30;;;21.30;98.60;;;;;;4998872;28;20712;-59
2022/06/16 07:22:58;;;;;;;14.77;7.47;;;21.40;99.50;;;;;;4983529;28;20424;-59
2022/06/16 07:25:24;;;;;;;9.13;6.97;;;21.50;99.70;;;;;;4983055;28;20997;-61
2022/06/16 07:27:50;;;;;;;13.83;8.00;;;21.60;99.20;;;;;;4985906;28;20235;-60
2022/06/16 07:30:18;;;;;;;11.93;7.63;;;21.80;99.10;;;;;;4984521;28;20867;-59
2022/06/16 07:32:45;;;;;;;11.20;7.60;;;22.00;98.10;;;;;;4983652;28;21615;-57
2022/06/16 07:35:13;;;;;;;11.60;6.70;;;22.10;97.30;;;;;;4971717;28;20441;-59
2022/06/16 07:37:39;;;;;;;10.07;7.00;;;22.20;96.80;;;;;;4992403;28;20464;-60
2022/06/16 07:40:06;;;;;;;12.60;6.60;;;22.40;96.90;;;;;;4975468;28;20457;-59
2022/06/16 07:42:33;;;;;;;10.57;6.17;;;22.60;94.40;;;;;;4984220;28;20221;-59
2022/06/16 07:44:59;;;;;;;14.63;5.73;;;22.80;90.00;;;;;;4987019;28;20494;-59
2022/06/16 07:47:26;;;;;;;19.13;5.87;;;22.90;86.70;;;;;;4977609;28;20547;-59
2022/06/16 07:49:52;;;;;;;10.00;6.10;;;23.00;82.10;;;;;;4980785;28;20456;-58
2022/06/16 07:52:17;;;;;;;8.90;5.60;;;23.10;76.90;;;;;;4980185;28;21011;-57
2022/06/16 07:54:44;;;;;;;9.10;6.17;;;23.10;73.20;;;;;;4984987;28;20189;-57
2022/06/16 07:57:10;;;;;;;8.80;5.70;;;23.30;72.30;;;;;;4981384;28;20594;-57
2022/06/16 07:59:36;;;;;;;13.70;6.43;;;23.40;72.70;;;;;;4979719;28;20467;-57
2022/06/16 08:02:02;;;;;;;9.87;5.57;;;23.60;68.50;;;;;;4980444;28;20440;-57
2022/06/16 08:04:29;;;;;;;11.53;5.20;;;23.60;67.60;;;;;;4980452;28;20193;-57
2022/06/16 08:07:00;;;;;;;9.73;6.00;;;23.70;66.80;;;;;;4978901;28;20471;-59
2022/06/16 08:09:27;;;;;;;7.73;5.50;;;23.80;66.20;;;;;;4979758;28;20534;-58
2022/06/16 08:12:06;;;;;;;10.30;6.33;;;23.80;66.00;;;;;;4980356;28;20440;-58
2022/06/16 08:14:32;;;;;;;10.30;5.07;;;23.90;65.70;;;;;;4983145;28;20438;-58
2022/06/16 08:16:59;;;;;;;8.87;5.80;;;24.00;65.70;;;;;;4976818;28;20495;-57
2022/06/16 08:19:25;;;;;;;8.80;5.43;;;24.10;64.00;;;;;;4965083;28;20526;-59
2022/06/16 08:21:51;;;;;;;9.67;5.90;;;24.20;63.40;;;;;;4972114;28;21101;-56
2022/06/16 08:24:17;;;;;;;6.23;5.33;;;24.30;63.20;;;;;;4969715;28;20185;-56
2022/06/16 08:26:44;;;;;;;12.63;6.23;;;24.40;61.70;;;;;;4975410;28;20448;-57
2022/06/16 08:29:13;;;;;;;14.00;6.00;;;24.40;60.80;;;;;;4976418;28;20835;-59
2022/06/16 08:31:39;;;;;;;7.70;5.63;;;24.50;59.30;;;;;;4975768;28;21064;-58
2022/06/16 08:34:06;;;;;;;10.47;5.93;;;24.50;59.10;;;;;;4979490;28;21313;-59
2022/06/16 08:36:32;;;;;;;11.37;5.80;;;24.60;59.20;;;;;;4971139;28;20205;-58
2022/06/16 08:38:58;;;;;;;9.20;6.10;;;24.60;59.80;;;;;;4977871;28;20470;-59
2022/06/16 08:41:51;;;;;;;9.23;5.70;;;24.70;59.60;;;;;;4983357;28;20436;-58
2022/06/16 08:44:34;;;;;;;5.87;5.03;;;24.80;60.00;;;;;;4976713;28;20205;-59
2022/06/16 08:47:04;;;;;;;13.70;5.77;;;24.90;58.80;;;;;;4987221;28;20453;-59
2022/06/16 08:49:45;;;;;;;7.27;5.80;;;25.10;57.80;;;;;;4984570;28;20495;-58
2022/06/16 08:52:28;;;;;;;7.30;6.03;;;25.10;56.90;;;;;;4978575;28;21006;-59
2022/06/16 08:55:03;;;;;;;11.40;5.80;;;25.30;56.80;;;;;;4984765;28;20443;-57
2022/06/16 08:57:38;;;;;;;8.77;5.93;;;25.40;57.80;;;;;;4979150;28;20462;-61
2022/06/16 09:00:12;;;;;;;9.73;6.17;;;25.50;58.10;;;;;;4989968;28;20459;-56
2022/06/16 09:02:41;;;;;;;13.43;5.30;;;25.70;57.30;;;;;;4975685;28;20423;-56
2022/06/16 09:05:09;;;;;;;9.00;6.33;;;25.70;54.90;;;;;;4978698;28;20434;-56
2022/06/16 09:07:52;;;;;;;6.47;5.87;;;25.90;56.80;;;;;;4984929;28;20435;-57
2022/06/16 09:10:33;;;;;;;10.47;6.33;;;26.10;58.90;;;;;;4972813;28;20461;-60
2022/06/16 09:13:24;;;;;;;9.90;5.97;;;26.30;59.00;;;;;;4982507;28;20442;-60
2022/06/16 09:16:08;;;;;;;10.60;5.80;;;26.40;58.00;;;;;;4976315;28;20445;-60
2022/06/16 09:18:49;;;;;;;11.00;5.03;;;26.50;58.20;;;;;;4974913;28;20451;-60
2022/06/16 09:21:36;;;;;;;7.90;5.03;;;26.60;57.00;;;;;;4986681;28;20427;-60
2022/06/16 09:24:24;;;;;;;5.63;4.33;;;26.40;53.70;;;;;;4979098;28;20587;-60
2022/06/16 09:26:59;;;;;;;6.60;4.80;;;26.30;51.80;;;;;;4980961;28;20508;-59
2022/06/16 09:29:28;;;;;;;10.20;5.10;;;26.30;49.90;;;;;;4972691;28;20455;-61
2022/06/16 09:32:04;;;;;;;8.57;4.23;;;26.30;49.60;;;;;;4973430;28;20428;-59
2022/06/16 09:34:48;;;;;;;7.17;4.47;;;26.30;48.10;;;;;;4978201;28;20436;-59
2022/06/16 09:37:36;;;;;;;7.13;4.00;;;26.50;50.30;;;;;;4971592;28;21182;-59
2022/06/16 09:40:17;;;;;;;5.93;4.20;;;26.70;51.30;;;;;;4956878;28;20456;-58
2022/06/16 09:42:54;;;;;;;5.20;4.03;;;26.90;51.30;;;;;;4976826;28;20420;-56
2022/06/16 09:45:47;;;;;;;5.43;4.00;;;27.00;49.40;;;;;;4975299;28;20440;-55
2022/06/16 09:48:18;;;;;;;6.10;3.30;;;27.10;47.80;;;;;;4978512;28;20428;-55
2022/06/16 09:50:53;;;;;;;5.93;3.47;;;27.10;46.40;;;;;;4982713;28;20287;-56
2022/06/16 09:53:36;;;;;;;4.03;3.30;;;27.20;45.60;;;;;;4976327;28;20573;-55
2022/06/16 09:56:18;;;;;;;6.93;3.10;;;27.30;44.70;;;;;;4990203;28;20436;-55
2022/06/16 09:59:08;;;;;;;5.67;3.50;;;27.50;43.10;;;;;;4976554;28;20223;-60
2022/06/16 10:01:47;;;;;;;6.53;3.27;;;27.40;40.50;;;;;;4987307;28;20243;-58
2022/06/16 10:04:13;;;;;;;9.50;3.40;;;27.30;41.00;;;;;;4993312;28;20269;-59
2022/06/16 10:07:01;;;;;;;5.97;3.40;;;27.30;42.80;;;;;;4991553;28;20561;-58
2022/06/16 10:09:45;;;;;;;6.00;3.30;;;27.40;44.00;;;;;;4989055;28;20208;-59
2022/06/16 10:12:14;;;;;;;6.30;3.30;;;27.50;43.60;;;;;;5000217;28;20319;-60
2022/06/16 10:14:40;;;;;;;4.30;3.03;;;27.60;41.60;;;;;;4978826;28;20658;-60
2022/06/16 10:17:09;;;;;;;6.33;3.60;;;27.60;40.60;;;;;;4975913;28;20298;-61
2022/06/16 10:19:38;;;;;;;4.00;2.80;;;27.60;40.30;;;;;;4977195;28;20943;-60
2022/06/16 10:22:06;;;;;;;7.37;3.20;;;27.70;41.10;;;;;;4974668;28;20605;-59
2022/06/16 10:24:53;;;;;;;9.43;3.50;;;27.70;40.20;;;;;;4976988;28;20654;-61
2022/06/16 10:27:20;;;;;;;5.70;2.90;;;27.80;41.10;;;;;;4982059;28;20545;-61
2022/06/16 10:29:58;;;;;;;4.30;3.80;;;27.90;40.30;;;;;;4976873;28;20221;-60
2022/06/16 10:32:46;;;;;;;4.20;3.60;;;28.00;40.20;;;;;;4970900;28;20184;-60
2022/06/16 10:35:20;;;;;;;5.60;3.30;;;28.10;41.70;;;;;;4970201;28;20185;-60
2022/06/16 10:37:50;;;;;;;7.97;3.50;;;28.30;42.00;;;;;;4979007;28;20210;-60
2022/06/16 10:40:26;;;;;;;7.17;3.77;;;28.40;40.30;;;;;;4977299;28;20204;-59
2022/06/16 10:42:58;;;;;;;8.77;3.47;;;28.50;38.80;;;;;;4986326;28;20239;-59
2022/06/16 10:45:31;;;;;;;7.17;3.10;;;28.50;39.90;;;;;;4980033;28;20173;-60
2022/06/16 10:48:17;;;;;;;4.03;3.00;;;28.60;37.80;;;;;;4960353;28;20750;-60
2022/06/16 10:50:56;;;;;;;7.00;3.50;;;28.60;38.50;;;;;;4975284;28;20204;-59
2022/06/16 10:53:26;;;;;;;7.97;3.17;;;28.80;39.00;;;;;;4977425;28;20177;-59
2022/06/16 10:56:01;;;;;;;8.73;3.50;;;28.90;37.70;;;;;;4978898;28;20629;-60
2022/06/16 10:58:31;;;;;;;8.83;3.63;;;29.10;37.70;;;;;;4983911;28;20254;-59
2022/06/16 11:01:16;;;;;;;8.93;3.57;;;29.10;37.60;;;;;;4992573;28;20212;-59
2022/06/16 11:03:46;;;;;;;8.27;3.30;;;29.20;37.30;;;;;;4991553;28;20677;-59
2022/06/16 11:06:14;;;;;;;10.48;3.90;;;29.30;39.30;;;;;;4975741;28;20188;-60
2022/06/16 11:08:45;;;;;;;6.10;3.60;;;29.50;39.20;;;;;;4981112;28;20178;-60
2022/06/16 11:11:11;;;;;;;9.75;3.47;;;29.60;39.20;;;;;;4972313;28;20311;-60
2022/06/16 11:13:47;;;;;;;5.22;3.38;;;29.80;40.10;;;;;;4980654;28;20216;-61
2022/06/16 11:16:42;;;;;;;5.03;3.58;;;29.80;38.10;;;;;;4983471;28;20183;-59
2022/06/16 11:19:10;;;;;;;10.52;3.60;;;29.80;38.20;;;;;;4975644;28;20243;-60
2022/06/16 11:21:37;;;;;;;5.40;3.05;;;30.00;37.80;;;;;;4971774;28;20308;-61
2022/06/16 11:24:20;;;;;;;8.07;3.60;;;29.90;37.50;;;;;;4976637;28;20205;-61
2022/06/16 11:26:46;;;;;;;6.10;3.83;;;30.00;37.10;;;;;;4974236;28;20193;-60
2022/06/16 11:29:11;;;;;;;4.55;3.65;;;29.80;36.90;;;;;;4984425;28;20589;-61
2022/06/16 11:31:44;;;;;;;6.47;3.72;;;29.40;37.90;;;;;;4979201;28;20239;-63
2022/06/16 11:34:28;;;;;;;8.18;3.25;;;29.40;37.60;;;;;;4983843;28;20185;-60
2022/06/16 11:37:08;;;;;;;10.27;3.20;;;29.50;37.60;;;;;;4988951;28;20200;-60
2022/06/16 11:39:49;;;;;;;7.68;3.50;;;29.40;39.20;;;;;;4985417;28;20203;-61
2022/06/16 11:42:14;;;;;;;7.30;3.47;;;29.40;39.40;;;;;;4980433;28;20308;-60
2022/06/16 11:44:52;;;;;;;8.27;3.60;;;29.70;39.30;;;;;;4984570;28;20264;-61
2022/06/16 11:47:35;;;;;;;7.43;2.92;;;29.90;38.70;;;;;;4990561;28;20184;-61
2022/06/16 11:50:20;;;;;;;8.23;3.60;;;30.20;36.80;;;;;;4977467;28;20216;-61
2022/06/16 11:53:06;;;;;;;6.47;3.35;;;30.40;36.80;;;;;;4977077;28;20258;-61
2022/06/16 11:55:54;;;;;;;7.18;3.25;;;30.60;36.10;;;;;;4977493;28;20181;-61
2022/06/16 11:58:51;;;;;;;14.68;3.58;;;30.70;35.90;;;;;;4978650;28;20220;-61
2022/06/16 12:01:31;;;;;;;4.18;2.97;;;30.80;33.00;;;;;;4975982;28;20237;-62
2022/06/16 12:04:46;;;;;;;3.97;2.85;;;30.70;33.80;;;;;;4975654;28;20183;-62
2022/06/16 12:07:23;;;;;;;4.60;2.78;;;30.80;32.30;;;;;;4949806;28;20676;-61
2022/06/16 12:09:55;;;;;;;5.25;3.17;;;30.90;34.10;;;;;;4976516;28;20204;-63
2022/06/16 12:12:36;;;;;;;7.55;3.47;;;31.00;33.50;;;;;;4969792;28;20182;-63
2022/06/16 12:15:17;;;;;;;7.80;3.30;;;31.20;33.70;;;;;;4979787;28;20188;-63
2022/06/16 12:17:58;;;;;;;6.20;3.35;;;31.30;34.00;;;;;;4992603;28;20291;-61
2022/06/16 12:20:49;;;;;;;8.40;3.67;;;31.00;34.90;;;;;;4991762;28;20297;-62
2022/06/16 12:23:29;;;;;;;3.40;2.85;;;30.70;36.10;;;;;;4986722;28;20235;-62
2022/06/16 12:26:26;;;;;;;7.07;3.58;;;30.80;38.30;;;;;;4986492;28;20671;-62
2022/06/16 12:28:51;;;;;;;5.30;2.72;;;31.10;37.60;;;;;;4982798;28;20619;-62
2022/06/16 12:31:31;;;;;;;4.10;2.75;;;31.40;35.50;;;;;;4989223;28;20180;-61
2022/06/16 12:34:10;;;;;;;4.97;2.95;;;31.60;35.60;;;;;;4988138;28;20207;-61
2022/06/16 12:36:41;;;;;;;7.60;3.47;;;31.70;33.70;;;;;;4976822;28;20220;-61
2022/06/16 12:39:15;;;;;;;8.70;2.78;;;31.70;32.60;;;;;;4977450;28;20203;-61
2022/06/16 12:41:45;;;;;;;4.85;2.78;;;31.70;31.70;;;;;;4987063;28;20917;-62
2022/06/16 12:44:53;;;;;;;6.63;3.38;;;31.70;31.70;;;;;;4983733;28;20183;-61
2022/06/16 12:47:27;;;;;;;9.00;2.80;;;31.70;32.10;;;;;;4952709;28;20200;-61
2022/06/16 12:50:03;;;;;;;3.70;2.38;;;31.80;33.80;;;;;;4964115;28;20207;-60
2022/06/16 12:52:39;;;;;;;5.43;2.90;;;32.00;33.40;;;;;;4976315;28;20530;-61
2022/06/16 12:55:14;;;;;;;6.30;2.97;;;32.20;33.00;;;;;;4976920;28;20187;-61
2022/06/16 12:57:51;;;;;;;5.78;2.90;;;32.40;33.40;;;;;;4979733;28;20204;-61
2022/06/16 13:00:21;;;;;;;4.70;3.00;;;32.40;31.30;;;;;;4979289;28;20243;-61
2022/06/16 13:02:55;;;;;;;6.85;3.00;;;32.40;32.00;;;;;;4980903;28;20169;-61
2022/06/16 13:05:21;;;;;;;10.48;3.38;;;32.50;31.00;;;;;;4970689;28;20169;-58
2022/06/16 13:07:51;;;;;;;4.18;2.63;;;32.60;30.70;;;;;;4968820;28;20220;-56
2022/06/16 13:10:17;;;;;;;6.55;2.80;;;32.60;29.70;;;;;;4971951;28;20501;-59
2022/06/16 13:12:50;;;;;;;6.70;3.20;;;32.60;30.50;;;;;;4974434;28;20670;-56
2022/06/16 13:15:22;;;;;;;7.75;2.88;;;32.80;31.00;;;;;;4975565;28;20268;-56
2022/06/16 13:18:00;;;;;;;8.20;3.30;;;32.80;29.50;;;;;;4972627;28;20208;-57
2022/06/16 13:20:30;;;;;;;6.47;2.22;;;32.80;30.00;;;;;;4979190;28;20218;-60
2022/06/16 13:22:57;;;;;;;6.60;2.75;;;32.80;30.30;;;;;;4974331;28;20193;-62
2022/06/16 13:25:35;;;;;;;26.25;4.32;;;32.90;30.00;;;;;;4963750;28;20228;-61